Time;durP1;ratioP1;P1;durP2;ratioP2;P2;SDS_P1;SDS_P2;PMS_P1;PMS_P2;Temp;Humidity;BMP_temperature;BMP_pressure;BME280_temperature;BME280_humidity;BME280_pressure;Samples;Min_cycle;Max_cycle;Signal;HPM_P1;HPM_P2
2022/12/03 00:01:36;;;;;;;8.65;5.20;;;2.60;99.90;;;;;;5131946;28;20042;-61
2022/12/03 00:04:10;;;;;;;8.07;5.50;;;2.50;99.90;;;;;;5141381;28;20219;-60
2022/12/03 00:06:42;;;;;;;9.95;5.85;;;2.50;99.90;;;;;;5086632;29;20500;-59
2022/12/03 00:09:15;;;;;;;8.18;5.32;;;2.40;99.90;;;;;;5134049;28;20072;-60
2022/12/03 00:11:57;;;;;;;8.88;5.30;;;2.50;99.90;;;;;;5146556;28;20047;-59
2022/12/03 00:14:29;;;;;;;12.45;6.30;;;2.50;99.90;;;;;;5151669;28;20034;-59
2022/12/03 00:17:00;;;;;;;11.82;6.53;;;2.40;99.90;;;;;;5152388;28;20045;-60
2022/12/03 00:19:31;;;;;;;10.20;5.72;;;2.50;99.90;;;;;;5134906;28;20041;-60
2022/12/03 00:22:09;;;;;;;10.40;5.70;;;2.60;99.90;;;;;;5131087;28;20039;-61
2022/12/03 00:24:43;;;;;;;10.45;5.45;;;2.60;99.90;;;;;;5117091;28;20058;-60
2022/12/03 00:27:15;;;;;;;9.90;5.97;;;2.60;99.90;;;;;;5152108;28;20061;-60
2022/12/03 00:29:49;;;;;;;9.40;5.20;;;2.70;99.90;;;;;;5119485;28;20223;-60
2022/12/03 00:32:22;;;;;;;10.38;5.82;;;2.60;99.90;;;;;;5135751;28;20035;-60
2022/12/03 00:34:56;;;;;;;10.35;5.93;;;2.50;99.90;;;;;;5132568;28;20043;-61
2022/12/03 00:37:27;;;;;;;10.80;5.78;;;2.50;99.90;;;;;;5131352;28;20050;-61
2022/12/03 00:40:02;;;;;;;9.20;6.22;;;2.60;99.90;;;;;;5152248;28;20266;-61
2022/12/03 00:42:38;;;;;;;12.32;7.03;;;2.70;99.90;;;;;;5136320;28;20045;-62
2022/12/03 00:45:12;;;;;;;12.02;6.65;;;2.60;99.90;;;;;;5134711;28;20045;-61
2022/12/03 00:47:46;;;;;;;11.30;6.68;;;2.70;99.90;;;;;;5153231;28;20051;-61
2022/12/03 00:50:24;;;;;;;12.07;6.40;;;2.60;99.90;;;;;;5118653;28;20323;-60
2022/12/03 00:53:03;;;;;;;13.32;6.60;;;2.60;99.90;;;;;;5136475;28;20037;-61
2022/12/03 00:55:37;;;;;;;10.55;6.80;;;2.70;99.90;;;;;;5118826;28;20051;-61
2022/12/03 00:58:11;;;;;;;12.27;6.55;;;2.60;99.90;;;;;;5116194;29;20041;-61
2022/12/03 01:03:21;;;;;;;14.07;6.75;;;2.60;99.90;;;;;;5127869;28;20052;-60
2022/12/03 01:05:58;;;;;;;12.10;6.63;;;2.70;99.90;;;;;;5108644;29;20062;-62
2022/12/03 01:08:38;;;;;;;12.43;6.20;;;2.70;99.90;;;;;;5130574;28;20057;-62
2022/12/03 01:14:16;;;;;;;10.55;5.90;;;2.60;99.90;;;;;;5136502;29;20334;-60
2022/12/03 01:16:50;;;;;;;14.15;6.35;;;2.50;99.90;;;;;;5117938;29;20054;-61
2022/12/03 01:19:24;;;;;;;9.95;5.78;;;2.50;99.90;;;;;;5129755;29;20386;-60
2022/12/03 01:22:01;;;;;;;11.63;6.43;;;2.50;99.90;;;;;;5115305;29;20078;-60
2022/12/03 01:24:35;;;;;;;14.82;6.88;;;2.50;99.90;;;;;;5110604;29;20039;-61
2022/12/03 01:27:09;;;;;;;11.38;6.63;;;2.60;99.90;;;;;;5130957;28;20053;-61
2022/12/03 01:29:42;;;;;;;10.68;6.55;;;2.70;99.90;;;;;;5122408;29;20346;-60
2022/12/03 01:32:24;;;;;;;15.13;6.95;;;2.70;99.90;;;;;;5134424;29;20034;-61
2022/12/03 01:34:58;;;;;;;10.68;5.65;;;2.60;99.90;;;;;;5103592;29;20089;-60
2022/12/03 01:37:29;;;;;;;7.13;4.22;;;2.60;99.90;;;;;;5101696;29;20043;-60
2022/12/03 01:40:12;;;;;;;10.63;4.95;;;2.60;99.90;;;;;;5088059;29;20043;-61
2022/12/03 01:42:46;;;;;;;11.75;6.13;;;2.60;99.90;;;;;;5103792;29;20051;-62
2022/12/03 01:45:31;;;;;;;10.95;5.88;;;2.40;99.90;;;;;;5088502;29;20039;-61
2022/12/03 01:48:07;;;;;;;11.90;6.13;;;2.40;99.90;;;;;;5101777;29;20031;-61
2022/12/03 01:50:39;;;;;;;9.13;5.95;;;2.40;99.90;;;;;;5118174;29;20049;-60
2022/12/03 01:53:18;;;;;;;;;;;2.30;99.90;;;;;;5103651;29;20061;-59
2022/12/03 01:55:55;;;;;;;9.32;5.07;;;2.20;99.90;;;;;;5102883;29;19932;-63
2022/12/03 01:58:29;;;;;;;11.95;5.57;;;2.30;99.90;;;;;;5084952;29;20043;-61
2022/12/03 02:01:18;;;;;;;11.00;5.40;;;2.30;99.90;;;;;;5101960;28;20055;-60
2022/12/03 02:03:55;;;;;;;10.57;5.85;;;2.40;99.90;;;;;;5073053;29;20045;-60
2022/12/03 02:06:33;;;;;;;10.77;5.88;;;2.50;99.90;;;;;;5091514;29;20051;-59
2022/12/03 02:09:13;;;;;;;13.40;5.80;;;2.50;99.90;;;;;;5083740;29;20137;-58
2022/12/03 02:11:54;;;;;;;10.77;5.35;;;2.40;99.90;;;;;;5098974;29;20043;-60
2022/12/03 02:14:28;;;;;;;13.63;6.00;;;2.30;99.90;;;;;;5097931;29;20374;-59
2022/12/03 02:17:02;;;;;;;10.40;5.97;;;2.30;99.90;;;;;;5100765;29;20049;-58
2022/12/03 02:19:48;;;;;;;9.27;5.43;;;2.30;99.90;;;;;;5117319;29;20049;-62
2022/12/03 02:22:46;;;;;;;10.50;5.57;;;2.40;99.90;;;;;;5106164;29;20043;-61
2022/12/03 02:25:22;;;;;;;10.68;6.82;;;2.50;99.90;;;;;;5059271;29;20074;-60
2022/12/03 02:28:00;;;;;;;9.38;6.10;;;2.50;99.90;;;;;;5115625;29;20057;-60
2022/12/03 02:30:33;;;;;;;11.57;6.70;;;2.40;99.90;;;;;;5118475;29;20197;-65
2022/12/03 02:33:08;;;;;;;10.80;5.90;;;2.50;99.90;;;;;;5113487;29;20070;-59
2022/12/03 02:35:39;;;;;;;10.43;6.38;;;2.60;99.90;;;;;;5100025;29;20470;-59
2022/12/03 02:38:17;;;;;;;9.38;5.47;;;2.70;99.90;;;;;;5110495;29;20043;-59
2022/12/03 02:40:54;;;;;;;9.95;6.07;;;2.60;99.90;;;;;;5084222;29;20047;-60
2022/12/03 02:43:31;;;;;;;10.20;5.40;;;2.70;99.90;;;;;;5101582;29;20053;-60
2022/12/03 02:46:13;;;;;;;12.15;6.07;;;2.60;99.90;;;;;;5117740;29;20039;-62
2022/12/03 02:48:45;;;;;;;11.32;5.95;;;2.60;99.90;;;;;;5116135;29;20039;-59
2022/12/03 02:51:20;;;;;;;11.73;6.13;;;2.70;99.90;;;;;;5116461;29;20050;-60
2022/12/03 02:53:59;;;;;;;11.20;5.63;;;2.80;99.90;;;;;;5081119;29;20047;-60
2022/12/03 02:56:36;;;;;;;10.23;6.00;;;2.70;99.90;;;;;;5088859;29;20353;-60
2022/12/03 02:59:10;;;;;;;10.35;5.40;;;2.80;99.90;;;;;;5111154;29;20051;-59
2022/12/03 03:01:45;;;;;;;11.68;5.57;;;2.60;99.90;;;;;;5104452;29;20039;-62
2022/12/03 03:04:23;;;;;;;;;;;2.70;99.90;;;;;;5094624;29;20035;-60
2022/12/03 03:06:56;;;;;;;7.55;4.32;;;2.70;99.90;;;;;;5100774;29;20184;-60
2022/12/03 03:09:34;;;;;;;9.13;5.30;;;2.40;99.90;;;;;;5100591;29;20051;-59
2022/12/03 03:12:07;;;;;;;8.75;5.50;;;2.60;99.90;;;;;;5085858;29;20461;-59
2022/12/03 03:14:39;;;;;;;9.57;4.60;;;2.60;99.90;;;;;;5113904;29;20051;-60
2022/12/03 03:17:13;;;;;;;9.05;5.28;;;2.60;99.90;;;;;;5100807;29;20046;-60
2022/12/03 03:19:45;;;;;;;11.88;5.57;;;2.60;99.90;;;;;;5096744;29;20066;-60
2022/12/03 03:22:22;;;;;;;9.27;5.72;;;2.60;99.90;;;;;;5097518;29;20227;-60
2022/12/03 03:24:56;;;;;;;7.35;4.80;;;2.70;99.90;;;;;;5098367;29;20061;-62
2022/12/03 03:27:31;;;;;;;9.93;4.88;;;2.80;99.90;;;;;;5129914;29;20093;-60
2022/12/03 03:30:12;;;;;;;8.65;4.95;;;2.70;99.90;;;;;;5113656;29;20062;-60
2022/12/03 03:32:43;;;;;;;7.10;4.60;;;2.70;99.90;;;;;;5111426;29;20043;-60
2022/12/03 03:35:16;;;;;;;6.40;4.35;;;2.70;99.90;;;;;;5099319;29;20227;-59
2022/12/03 03:37:54;;;;;;;6.65;4.13;;;2.70;99.90;;;;;;5085845;29;20050;-60
2022/12/03 03:40:32;;;;;;;7.78;4.82;;;2.70;99.90;;;;;;5101071;29;20070;-60
2022/12/03 03:43:05;;;;;;;7.22;4.93;;;2.70;99.90;;;;;;5101708;29;20043;-61
2022/12/03 03:45:38;;;;;;;12.38;6.03;;;2.80;99.90;;;;;;5111995;29;20053;-59
2022/12/03 03:48:15;;;;;;;10.90;5.60;;;2.70;99.90;;;;;;5085372;29;20043;-60
2022/12/03 03:50:49;;;;;;;7.40;4.28;;;2.80;99.90;;;;;;5100110;29;20039;-61
2022/12/03 03:53:21;;;;;;;7.97;4.85;;;2.70;99.90;;;;;;5101683;29;20036;-61
2022/12/03 03:55:53;;;;;;;8.98;5.25;;;2.80;99.90;;;;;;5096190;29;20366;-60
2022/12/03 03:58:33;;;;;;;9.02;5.28;;;2.80;99.90;;;;;;5096687;29;20043;-61
2022/12/03 04:01:06;;;;;;;10.35;5.70;;;3.00;99.90;;;;;;5098350;28;20233;-60
2022/12/03 04:03:41;;;;;;;9.63;5.45;;;3.00;99.90;;;;;;5112114;29;20043;-62
2022/12/03 04:06:13;;;;;;;8.70;5.10;;;3.00;99.90;;;;;;5088787;29;20055;-61
2022/12/03 04:08:44;;;;;;;8.85;5.10;;;2.90;99.90;;;;;;5100615;29;20049;-59
2022/12/03 04:14:08;;;;;;;9.30;5.00;;;2.80;99.90;;;;;;5117392;29;20035;-61
2022/12/03 04:16:42;;;;;;;4.72;3.15;;;2.70;99.90;;;;;;5096865;29;20062;-60
2022/12/03 04:19:16;;;;;;;8.00;5.10;;;2.60;99.90;;;;;;5100436;29;20462;-60
2022/12/03 04:24:43;;;;;;;11.07;5.63;;;2.60;99.90;;;;;;5124659;29;20041;-61
2022/12/03 04:30:10;;;;;;;10.80;5.93;;;2.70;99.90;;;;;;5101180;29;20053;-60
2022/12/03 04:35:41;;;;;;;8.57;6.00;;;2.70;99.90;;;;;;5102086;28;19925;-60
2022/12/03 04:38:14;;;;;;;9.68;5.65;;;2.70;99.90;;;;;;5121059;29;20338;-59
2022/12/03 04:41:00;;;;;;;13.65;6.47;;;2.60;99.90;;;;;;5087049;29;20043;-60
2022/12/03 04:44:32;;;;;;;14.95;6.30;;;2.60;99.90;;;;;;5118104;29;20049;-60
2022/12/03 04:46:31;;;;;;;11.18;5.65;;;2.60;99.90;;;;;;5138492;28;20042;-60
2022/12/03 04:49:03;;;;;;;12.13;6.43;;;2.70;99.90;;;;;;5104362;29;20050;-61
2022/12/03 04:51:37;;;;;;;10.85;6.47;;;2.70;99.90;;;;;;5118941;29;20047;-60
2022/12/03 04:54:17;;;;;;;9.13;5.32;;;2.70;99.90;;;;;;5105032;29;20050;-61
2022/12/03 04:56:54;;;;;;;12.00;6.20;;;2.70;99.90;;;;;;5120210;29;20045;-61
2022/12/03 04:59:28;;;;;;;10.77;5.60;;;2.60;99.90;;;;;;5103922;29;20240;-60
2022/12/03 05:02:00;;;;;;;11.63;5.75;;;2.70;99.90;;;;;;5134731;28;20051;-61
2022/12/03 05:04:31;;;;;;;10.43;5.68;;;2.70;99.90;;;;;;5089697;29;20059;-63
2022/12/03 05:07:11;;;;;;;10.38;5.45;;;2.80;99.90;;;;;;5089254;29;20055;-62
2022/12/03 05:09:45;;;;;;;10.45;6.18;;;2.90;99.90;;;;;;5120192;29;20329;-61
2022/12/03 05:12:22;;;;;;;9.95;5.88;;;2.90;99.90;;;;;;5114885;29;20049;-60
2022/12/03 05:14:53;;;;;;;10.40;5.80;;;2.90;99.90;;;;;;5100216;29;20313;-62
2022/12/03 05:17:25;;;;;;;10.57;5.85;;;2.90;99.90;;;;;;5086714;29;20046;-60
2022/12/03 05:22:57;;;;;;;8.38;4.97;;;2.90;99.90;;;;;;5122582;29;20031;-60
2022/12/03 05:25:31;;;;;;;11.55;6.32;;;2.80;99.90;;;;;;5094351;29;20343;-59
2022/12/03 05:28:03;;;;;;;11.38;5.40;;;2.60;99.90;;;;;;5117543;29;20047;-60
2022/12/03 05:30:42;;;;;;;6.40;3.78;;;2.60;99.90;;;;;;5103735;29;20043;-61
2022/12/03 05:33:16;;;;;;;8.75;5.22;;;2.60;99.90;;;;;;5118536;29;20043;-61
2022/12/03 05:35:48;;;;;;;13.38;6.68;;;2.40;99.90;;;;;;5123422;29;20031;-61
2022/12/03 05:38:28;;;;;;;12.98;5.85;;;2.40;99.90;;;;;;5088112;29;20332;-59
2022/12/03 05:42:52;;;;;;;10.30;5.88;;;2.50;99.90;;;;;;5100850;29;20027;-59
2022/12/03 05:43:57;;;;;;;10.02;5.70;;;2.40;99.90;;;;;;5091917;29;20063;-60
2022/12/03 05:46:34;;;;;;;10.48;5.85;;;2.50;99.90;;;;;;5118988;29;20051;-60
2022/12/03 05:49:10;;;;;;;10.40;5.45;;;2.50;99.90;;;;;;5101327;29;20043;-60
2022/12/03 05:51:41;;;;;;;13.13;6.60;;;2.60;99.90;;;;;;5116428;29;20037;-59
2022/12/03 05:54:13;;;;;;;8.02;4.22;;;2.60;99.90;;;;;;5099189;29;20069;-60
2022/12/03 05:56:44;;;;;;;13.43;6.43;;;2.60;99.90;;;;;;5107848;29;20046;-59
2022/12/03 05:59:21;;;;;;;9.55;5.72;;;2.60;99.90;;;;;;5111426;29;20313;-59
2022/12/03 06:01:57;;;;;;;14.23;6.38;;;2.60;99.90;;;;;;5103494;29;20047;-60
2022/12/03 06:04:33;;;;;;;10.30;5.60;;;2.70;99.90;;;;;;5107632;29;20675;-60
2022/12/03 06:07:12;;;;;;;10.02;5.55;;;2.70;99.90;;;;;;5103215;29;20043;-60
2022/12/03 06:09:51;;;;;;;11.43;5.97;;;2.70;99.90;;;;;;5102999;29;20285;-60
2022/12/03 06:12:22;;;;;;;15.90;7.18;;;2.70;99.90;;;;;;5102411;29;20043;-60
2022/12/03 06:14:58;;;;;;;9.13;4.95;;;2.70;99.90;;;;;;5114803;29;20338;-61
2022/12/03 06:17:32;;;;;;;8.85;5.57;;;2.70;99.90;;;;;;5099857;29;20259;-61
2022/12/03 06:20:14;;;;;;;16.83;6.22;;;2.70;99.90;;;;;;5116387;29;20497;-62
2022/12/03 06:22:53;;;;;;;10.70;6.35;;;2.70;99.90;;;;;;5138910;28;20288;-60
2022/12/03 06:25:30;;;;;;;13.65;7.10;;;2.80;99.90;;;;;;5100713;29;20045;-60
2022/12/03 06:28:05;;;;;;;12.65;6.38;;;2.80;99.90;;;;;;5118598;29;20031;-61
2022/12/03 06:30:37;;;;;;;14.98;6.97;;;2.80;99.90;;;;;;5117687;29;20039;-61
2022/12/03 06:33:11;;;;;;;12.32;6.15;;;2.80;99.90;;;;;;5117400;29;20400;-60
2022/12/03 06:35:44;;;;;;;10.32;5.45;;;2.80;99.90;;;;;;5099398;29;20034;-60
2022/12/03 06:38:21;;;;;;;11.05;6.32;;;2.80;99.90;;;;;;5117733;29;20494;-60
2022/12/03 06:41:00;;;;;;;13.20;6.45;;;2.80;99.90;;;;;;5103150;29;20045;-60
2022/12/03 06:43:36;;;;;;;15.07;6.70;;;2.80;99.90;;;;;;5108480;29;20049;-60
2022/12/03 06:46:09;;;;;;;13.48;7.30;;;2.90;99.90;;;;;;5108735;29;20040;-61
2022/12/03 06:48:43;;;;;;;8.35;5.60;;;3.00;99.90;;;;;;5114201;29;20047;-65
2022/12/03 06:51:17;;;;;;;11.02;7.03;;;2.90;99.90;;;;;;5101566;29;20049;-60
2022/12/03 06:53:52;;;;;;;13.50;7.43;;;2.80;99.90;;;;;;5085031;29;20043;-60
2022/12/03 06:56:29;;;;;;;11.07;5.72;;;2.70;99.90;;;;;;5129141;29;20039;-61
2022/12/03 06:59:01;;;;;;;11.98;6.35;;;2.70;99.90;;;;;;5085490;29;20065;-60
2022/12/03 07:01:35;;;;;;;15.00;7.45;;;2.70;99.90;;;;;;5117634;29;20047;-61
2022/12/03 07:04:11;;;;;;;14.30;6.93;;;2.70;99.90;;;;;;5116626;29;20055;-62
2022/12/03 07:06:48;;;;;;;11.77;6.53;;;2.70;99.90;;;;;;5056747;29;20050;-62
2022/12/03 07:09:22;;;;;;;13.50;6.60;;;2.80;99.90;;;;;;5119049;29;20047;-61
2022/12/03 07:11:58;;;;;;;9.57;5.63;;;2.90;99.90;;;;;;5118414;29;20030;-62
2022/12/03 07:14:35;;;;;;;13.73;6.40;;;2.90;99.90;;;;;;5097982;29;20038;-61
2022/12/03 07:17:12;;;;;;;14.02;6.72;;;2.90;99.90;;;;;;5100730;29;20039;-61
2022/12/03 07:19:49;;;;;;;8.90;5.53;;;3.00;99.90;;;;;;5113124;29;20446;-59
2022/12/03 07:22:26;;;;;;;11.93;6.03;;;3.00;99.90;;;;;;5099930;29;20039;-60
2022/12/03 07:25:10;;;;;;;;;;;3.00;99.90;;;;;;5129206;29;20045;-62
2022/12/03 07:27:46;;;;;;;13.00;6.07;;;3.10;99.90;;;;;;5096958;29;19918;-62
2022/12/03 07:30:27;;;;;;;11.15;6.00;;;3.10;99.90;;;;;;5109762;29;20061;-61
2022/12/03 07:33:01;;;;;;;14.95;6.78;;;3.20;99.90;;;;;;5094664;29;20051;-61
2022/12/03 07:35:38;;;;;;;14.00;7.63;;;3.20;99.90;;;;;;5115201;29;20061;-62
2022/12/03 07:38:15;;;;;;;12.23;6.47;;;3.30;99.90;;;;;;5117254;29;20125;-61
2022/12/03 07:41:00;;;;;;;12.25;5.97;;;3.30;99.90;;;;;;5114880;29;20031;-59
2022/12/03 07:43:36;;;;;;;13.80;6.80;;;3.20;99.90;;;;;;5099926;29;20043;-60
2022/12/03 07:46:09;;;;;;;14.35;7.30;;;3.00;99.90;;;;;;5095289;29;20047;-61
2022/12/03 07:48:46;;;;;;;15.55;7.78;;;3.00;99.90;;;;;;5115437;29;20077;-62
2022/12/03 07:51:22;;;;;;;18.45;8.10;;;3.10;99.90;;;;;;5116154;29;20039;-61
2022/12/03 07:53:59;;;;;;;16.38;8.30;;;3.00;99.90;;;;;;5097551;29;20059;-61
2022/12/03 07:56:30;;;;;;;17.70;7.78;;;3.00;99.90;;;;;;5100494;29;20047;-61
2022/12/03 07:59:05;;;;;;;17.65;8.43;;;3.00;99.90;;;;;;5097655;29;20039;-62
2022/12/03 08:01:36;;;;;;;19.60;8.65;;;3.00;99.90;;;;;;5069894;29;20062;-62
2022/12/03 08:04:13;;;;;;;18.85;8.57;;;3.00;99.90;;;;;;5112459;29;20536;-60
2022/12/03 08:06:46;;;;;;;16.45;8.88;;;3.00;99.90;;;;;;5087939;29;20348;-62
2022/12/03 08:09:20;;;;;;;17.27;8.98;;;3.20;99.90;;;;;;5113499;29;20035;-62
2022/12/03 08:12:04;;;;;;;19.15;9.10;;;3.20;99.90;;;;;;5085448;29;20061;-61
2022/12/03 08:14:37;;;;;;;16.25;9.00;;;3.20;99.90;;;;;;5113889;29;20051;-61
2022/12/03 08:17:17;;;;;;;1999.90;792.17;;;3.30;99.90;;;;;;5080269;29;20545;-60
2022/12/03 08:19:54;;;;;;;540.08;307.02;;;3.30;99.90;;;;;;5101863;29;20047;-61
2022/12/03 08:22:26;;;;;;;674.63;309.60;;;3.30;99.90;;;;;;5115752;29;20043;-60
2022/12/03 08:24:58;;;;;;;990.83;513.40;;;3.40;99.90;;;;;;5114394;29;20223;-61
2022/12/03 08:27:32;;;;;;;1593.15;775.10;;;3.50;99.90;;;;;;5111897;29;20047;-60
2022/12/03 08:30:05;;;;;;;736.47;431.25;;;3.50;99.90;;;;;;5083122;29;20039;-61
2022/12/03 08:32:39;;;;;;;430.58;326.15;;;3.40;99.90;;;;;;5113023;29;20042;-60
2022/12/03 08:35:24;;;;;;;90.43;67.93;;;3.50;99.90;;;;;;5123782;29;20054;-60
2022/12/03 08:38:16;;;;;;;73.88;49.72;;;3.50;99.90;;;;;;5107961;29;20031;-59
2022/12/03 08:40:54;;;;;;;57.05;35.65;;;3.50;99.90;;;;;;5123811;29;20035;-60
2022/12/03 08:43:29;;;;;;;27.38;17.15;;;3.40;99.90;;;;;;5120199;29;20641;-60
2022/12/03 08:46:03;;;;;;;60.75;38.08;;;3.30;99.90;;;;;;5110401;29;20079;-60
2022/12/03 08:48:39;;;;;;;22.45;15.73;;;3.40;99.90;;;;;;5108186;29;20340;-60
2022/12/03 08:51:24;;;;;;;29.48;17.20;;;3.40;99.90;;;;;;5074268;29;20047;-61
2022/12/03 08:54:09;;;;;;;23.38;15.07;;;3.50;99.90;;;;;;5123103;29;20043;-60
2022/12/03 08:56:47;;;;;;;31.70;18.75;;;3.50;99.90;;;;;;5095443;29;20133;-63
2022/12/03 08:59:38;;;;;;;68.82;44.00;;;3.40;99.90;;;;;;5111433;29;20051;-61
2022/12/03 09:02:24;;;;;;;47.85;35.28;;;3.40;99.90;;;;;;5095346;29;20332;-60
2022/12/03 09:05:01;;;;;;;26.48;16.45;;;3.40;99.90;;;;;;5077173;29;20089;-60
2022/12/03 09:07:35;;;;;;;84.38;73.45;;;3.30;99.90;;;;;;5100431;29;20066;-61
2022/12/03 09:10:08;;;;;;;38.60;22.40;;;3.40;99.90;;;;;;5097775;29;20051;-60
2022/12/03 09:12:47;;;;;;;63.75;39.08;;;3.50;99.90;;;;;;5114018;29;20047;-69
2022/12/03 09:15:26;;;;;;;41.00;22.70;;;3.40;99.90;;;;;;5114498;29;20254;-64
2022/12/03 09:18:03;;;;;;;48.15;28.83;;;3.40;99.90;;;;;;5085896;29;20059;-60
2022/12/03 09:20:35;;;;;;;50.70;30.33;;;3.60;99.90;;;;;;5097399;29;20047;-63
2022/12/03 09:23:07;;;;;;;34.75;18.23;;;3.60;99.90;;;;;;5083668;29;20047;-62
2022/12/03 09:25:41;;;;;;;22.90;11.35;;;3.60;99.90;;;;;;5100620;29;20119;-61
2022/12/03 09:28:20;;;;;;;24.27;12.48;;;3.60;99.90;;;;;;5085711;29;20055;-62
2022/12/03 09:30:59;;;;;;;22.00;12.15;;;3.50;99.90;;;;;;5114188;29;20147;-61
2022/12/03 09:33:35;;;;;;;31.35;11.02;;;3.60;99.90;;;;;;5089874;29;20071;-61
2022/12/03 09:36:09;;;;;;;26.42;13.57;;;3.50;99.90;;;;;;5102204;29;20069;-60
2022/12/03 09:38:44;;;;;;;25.15;13.02;;;3.50;99.90;;;;;;5100532;29;20057;-60
2022/12/03 09:41:18;;;;;;;25.63;13.52;;;3.70;99.90;;;;;;5127775;29;20031;-61
2022/12/03 09:44:00;;;;;;;26.95;13.05;;;3.70;99.90;;;;;;5088954;29;20047;-60
2022/12/03 09:46:37;;;;;;;18.23;10.38;;;3.80;99.90;;;;;;5101407;29;20050;-61
2022/12/03 09:49:17;;;;;;;10.65;6.45;;;3.70;99.90;;;;;;5114644;29;20049;-60
2022/12/03 09:51:57;;;;;;;23.83;10.52;;;3.60;99.90;;;;;;5105735;29;20054;-60
2022/12/03 09:54:32;;;;;;;19.63;9.35;;;3.70;99.90;;;;;;5101067;29;20053;-61
2022/12/03 09:57:13;;;;;;;19.42;10.93;;;3.80;99.90;;;;;;5114028;29;20053;-61
2022/12/03 09:59:50;;;;;;;240.40;158.55;;;3.80;99.90;;;;;;5114536;29;20047;-61
2022/12/03 10:02:28;;;;;;;145.52;101.78;;;3.80;99.90;;;;;;5115364;29;20039;-60
2022/12/03 10:05:00;;;;;;;205.55;147.75;;;3.80;99.90;;;;;;5104692;29;20069;-61
2022/12/03 10:07:33;;;;;;;169.90;125.57;;;3.90;99.90;;;;;;5115947;29;20049;-60
2022/12/03 10:10:16;;;;;;;41.75;26.98;;;4.00;99.90;;;;;;5100818;29;20045;-60
2022/12/03 10:12:51;;;;;;;48.85;32.47;;;4.00;99.90;;;;;;5107765;29;20035;-62
2022/12/03 10:15:24;;;;;;;97.20;60.15;;;3.90;99.90;;;;;;5129629;29;20045;-62
2022/12/03 10:18:00;;;;;;;50.38;37.10;;;4.00;99.90;;;;;;5079832;29;20059;-60
2022/12/03 10:20:40;;;;;;;82.78;56.92;;;4.00;99.90;;;;;;5105284;29;20047;-62
2022/12/03 10:23:30;;;;;;;71.10;53.20;;;3.90;99.90;;;;;;5131748;28;20053;-60
2022/12/03 10:26:02;;;;;;;91.70;71.60;;;4.00;99.90;;;;;;5107694;29;20244;-63
2022/12/03 10:28:40;;;;;;;51.15;31.33;;;4.00;99.90;;;;;;5125242;29;20039;-60
2022/12/03 10:31:14;;;;;;;89.18;63.30;;;4.20;99.90;;;;;;5112077;29;20043;-63
2022/12/03 10:33:46;;;;;;;82.47;53.38;;;4.40;99.90;;;;;;5110189;29;20049;-60
2022/12/03 10:36:27;;;;;;;38.83;24.73;;;4.50;99.90;;;;;;5105480;29;20421;-60
2022/12/03 10:39:16;;;;;;;45.78;30.90;;;4.50;99.90;;;;;;5110443;29;20273;-61
2022/12/03 10:41:53;;;;;;;20.92;13.43;;;4.40;99.90;;;;;;5111150;29;20387;-63
2022/12/03 10:44:30;;;;;;;36.08;20.75;;;4.40;99.90;;;;;;5111197;29;20043;-61
2022/12/03 10:47:11;;;;;;;48.75;32.22;;;4.50;99.90;;;;;;5092007;29;20054;-60
2022/12/03 10:49:45;;;;;;;35.55;20.45;;;4.50;99.90;;;;;;5096017;29;20043;-61
2022/12/03 10:52:25;;;;;;;42.20;25.70;;;4.60;99.90;;;;;;5109997;29;20035;-60
2022/12/03 10:54:59;;;;;;;34.28;19.15;;;4.50;99.90;;;;;;5111335;29;20039;-59
2022/12/03 10:57:32;;;;;;;24.02;13.32;;;4.30;99.90;;;;;;5084837;29;20047;-60
2022/12/03 11:00:12;;;;;;;29.23;18.95;;;4.30;99.90;;;;;;5082469;29;20049;-60
2022/12/03 11:02:46;;;;;;;31.73;20.95;;;4.40;99.90;;;;;;5114315;29;20043;-60
2022/12/03 11:05:29;;;;;;;22.47;12.33;;;4.40;99.90;;;;;;5090065;28;20049;-59
2022/12/03 11:08:03;;;;;;;21.17;10.75;;;4.30;99.90;;;;;;5114507;29;20058;-61
2022/12/03 11:10:37;;;;;;;16.42;9.60;;;4.30;99.90;;;;;;5084539;29;20224;-60
2022/12/03 11:13:51;;;;;;;17.63;9.30;;;4.30;99.90;;;;;;5110447;29;20050;-61
2022/12/03 11:16:49;;;;;;;14.98;7.03;;;4.40;99.90;;;;;;5100437;29;20051;-60
2022/12/03 11:19:36;;;;;;;21.08;10.80;;;4.40;99.90;;;;;;5123881;29;20059;-60
2022/12/03 11:22:10;;;;;;;16.52;9.25;;;4.30;99.90;;;;;;5116989;29;20039;-59
2022/12/03 11:24:44;;;;;;;22.88;10.25;;;4.40;99.90;;;;;;5098016;29;20038;-60
2022/12/03 11:27:24;;;;;;;19.08;9.55;;;4.30;99.90;;;;;;5099431;29;20046;-60
2022/12/03 11:30:05;;;;;;;17.70;8.00;;;4.30;99.90;;;;;;5077829;29;20048;-59
2022/12/03 11:33:02;;;;;;;19.05;8.88;;;4.40;99.90;;;;;;5089492;29;20231;-60
2022/12/03 11:36:11;;;;;;;20.25;14.13;;;4.30;99.90;;;;;;5098288;29;20031;-60
2022/12/03 11:38:49;;;;;;;38.67;16.98;;;4.30;99.90;;;;;;5133442;29;20035;-60
2022/12/03 11:41:31;;;;;;;33.00;19.27;;;4.30;99.90;;;;;;5115757;29;20236;-61
2022/12/03 11:44:28;;;;;;;56.70;38.72;;;4.30;99.90;;;;;;5113839;29;20054;-61
2022/12/03 11:47:11;;;;;;;30.63;21.80;;;4.40;99.90;;;;;;5114386;29;20058;-60
2022/12/03 11:49:46;;;;;;;35.60;21.55;;;4.40;99.90;;;;;;5124309;29;20035;-60
2022/12/03 11:52:29;;;;;;;21.95;11.18;;;4.40;99.90;;;;;;5075151;29;20333;-60
2022/12/03 11:55:14;;;;;;;18.02;12.52;;;4.40;99.90;;;;;;5097917;29;20240;-60
2022/12/03 11:58:02;;;;;;;30.60;23.25;;;4.40;99.90;;;;;;5125016;29;20042;-59
2022/12/03 12:00:40;;;;;;;22.35;14.43;;;4.40;99.90;;;;;;5082550;29;20228;-60
2022/12/03 12:03:30;;;;;;;90.15;45.00;;;4.40;99.90;;;;;;5098702;29;20334;-60
2022/12/03 12:06:09;;;;;;;139.32;80.32;;;4.50;99.90;;;;;;5090493;29;20046;-60
2022/12/03 12:08:55;;;;;;;64.43;44.28;;;4.40;99.90;;;;;;5112396;29;20058;-61
2022/12/03 12:11:42;;;;;;;131.55;95.10;;;4.30;99.90;;;;;;5116325;29;20241;-61
2022/12/03 12:14:24;;;;;;;69.25;42.30;;;4.30;99.90;;;;;;5132091;29;20053;-60
2022/12/03 12:16:57;;;;;;;35.03;19.77;;;4.30;99.90;;;;;;5133015;29;20334;-62
2022/12/03 12:19:44;;;;;;;112.65;62.53;;;4.30;99.90;;;;;;5099141;29;20124;-59
2022/12/03 12:22:25;;;;;;;175.43;94.68;;;4.20;99.90;;;;;;5124751;29;20031;-61
2022/12/03 12:25:02;;;;;;;177.30;96.15;;;4.30;99.90;;;;;;5096754;29;20049;-59
2022/12/03 12:27:44;;;;;;;72.80;40.40;;;4.30;99.90;;;;;;5099900;29;20038;-61
2022/12/03 12:30:27;;;;;;;225.27;107.50;;;4.30;99.90;;;;;;5114930;29;20246;-60
2022/12/03 12:33:21;;;;;;;578.22;292.33;;;4.30;99.90;;;;;;5131240;29;20047;-59
2022/12/03 12:35:53;;;;;;;127.05;60.92;;;4.30;99.90;;;;;;5116316;29;20055;-60
2022/12/03 12:38:27;;;;;;;291.98;141.27;;;4.30;99.90;;;;;;5099991;29;20047;-64
2022/12/03 12:41:08;;;;;;;60.70;30.75;;;4.30;99.90;;;;;;5093747;29;20312;-61
2022/12/03 12:43:43;;;;;;;256.75;129.30;;;4.40;99.90;;;;;;5095072;29;20350;-60
2022/12/03 12:46:21;;;;;;;78.30;44.63;;;4.30;99.90;;;;;;5064561;29;20044;-61
2022/12/03 12:48:53;;;;;;;165.38;97.75;;;4.30;99.90;;;;;;5104998;29;20049;-60
2022/12/03 12:51:26;;;;;;;18.48;9.25;;;4.30;99.90;;;;;;5103702;29;20043;-60
2022/12/03 12:54:04;;;;;;;37.25;22.13;;;4.40;99.90;;;;;;5080949;29;20061;-59
2022/12/03 12:56:41;;;;;;;36.15;21.35;;;4.30;99.90;;;;;;5095622;28;20049;-59
2022/12/03 12:59:25;;;;;;;140.57;68.68;;;4.30;99.90;;;;;;5113195;29;20055;-61
2022/12/03 13:01:59;;;;;;;49.22;27.70;;;4.30;99.90;;;;;;5073484;29;20047;-59
2022/12/03 13:04:38;;;;;;;84.00;49.15;;;4.30;99.90;;;;;;5080969;29;20340;-62
2022/12/03 13:07:19;;;;;;;24.23;15.18;;;4.40;99.90;;;;;;5100481;29;20035;-60
2022/12/03 13:09:55;;;;;;;40.38;21.63;;;4.40;99.90;;;;;;5113292;29;20050;-60
2022/12/03 13:12:32;;;;;;;85.78;50.88;;;4.50;99.90;;;;;;5126998;29;20051;-60
2022/12/03 13:15:36;;;;;;;20.15;11.77;;;4.50;99.90;;;;;;5103041;29;20043;-61
2022/12/03 13:18:30;;;;;;;55.53;30.88;;;4.30;99.90;;;;;;5115105;29;20054;-60
2022/12/03 13:21:41;;;;;;;70.97;41.53;;;4.20;99.90;;;;;;5109735;29;20034;-60
2022/12/03 13:24:39;;;;;;;180.73;93.05;;;4.20;99.90;;;;;;5054584;29;20055;-61
2022/12/03 13:27:17;;;;;;;438.33;251.18;;;4.20;99.90;;;;;;5031366;29;20322;-59
2022/12/03 13:30:17;;;;;;;762.70;461.55;;;4.20;99.90;;;;;;5035194;29;20043;-60
2022/12/03 13:32:57;;;;;;;208.73;130.95;;;4.20;99.90;;;;;;5022953;29;20036;-60
2022/12/03 13:35:35;;;;;;;428.95;306.50;;;4.30;99.90;;;;;;5021305;29;20068;-60
2022/12/03 13:38:22;;;;;;;73.63;46.40;;;4.40;99.90;;;;;;5021027;29;20088;-60
2022/12/03 13:44:17;;;;;;;79.65;57.22;;;4.40;99.90;;;;;;5051407;29;20314;-60
2022/12/03 13:46:49;;;;;;;60.38;42.88;;;4.30;99.90;;;;;;5047695;29;20050;-61
2022/12/03 13:49:28;;;;;;;81.65;56.00;;;4.20;99.90;;;;;;5034024;29;20045;-59
2022/12/03 13:52:00;;;;;;;74.38;51.35;;;4.30;99.90;;;;;;5034707;29;20371;-62
2022/12/03 13:54:31;;;;;;;135.85;96.05;;;4.20;99.90;;;;;;5031592;29;20047;-60
2022/12/03 13:57:09;;;;;;;219.82;154.82;;;4.20;99.90;;;;;;5033835;29;20040;-61
2022/12/03 13:59:43;;;;;;;99.07;64.78;;;4.20;99.90;;;;;;5060686;29;20051;-60